Terminal Aerodrome Forecast
Issued by NWS

Home | Current Version | Previous Version | Text Only | Print | Product List | Glossary On
Versions: 1 2 3 4 5 6 7 8 9 10 11 12 13 14 15 16 17 18
238
FTUS46 KHNX 080535
TAFMCE
TAF
KMCE 080535Z 0806/0906 VRB04KT 5SM -SHRA OVC050
     FM081100 11014KT 5SM -RA BKN020 OVC035
     FM081600 13012KT P6SM VCSH SCT035 BKN060=

USA.gov is the U.S. government's official web portal to all federal, state and local government web resources and services.